sensor_id;sensor_type;location;lat;lon;timestamp;P1;durP1;ratioP1;P2;durP2;ratioP2
22916;SDS011;11624;53.250;7.456;2023-06-01T00:00:35;23.75;;;6.50;;
22916;SDS011;11624;53.250;7.456;2023-06-01T00:03:06;20.88;;;6.53;;
22916;SDS011;11624;53.250;7.456;2023-06-01T00:05:34;20.23;;;6.68;;
22916;SDS011;11624;53.250;7.456;2023-06-01T00:08:02;22.42;;;6.25;;
22916;SDS011;11624;53.250;7.456;2023-06-01T00:10:34;25.90;;;6.97;;
22916;SDS011;11624;53.250;7.456;2023-06-01T00:13:02;22.67;;;6.18;;
22916;SDS011;11624;53.250;7.456;2023-06-01T00:15:30;19.35;;;6.38;;
22916;SDS011;11624;53.250;7.456;2023-06-01T00:17:59;22.13;;;6.90;;
22916;SDS011;11624;53.250;7.456;2023-06-01T00:20:27;26.58;;;7.28;;
22916;SDS011;11624;53.250;7.456;2023-06-01T00:22:58;22.35;;;6.72;;
22916;SDS011;11624;53.250;7.456;2023-06-01T00:25:27;30.10;;;7.18;;
22916;SDS011;11624;53.250;7.456;2023-06-01T00:27:56;21.17;;;6.60;;
22916;SDS011;11624;53.250;7.456;2023-06-01T00:30:25;22.27;;;7.03;;
22916;SDS011;11624;53.250;7.456;2023-06-01T00:32:53;25.50;;;7.47;;
22916;SDS011;11624;53.250;7.456;2023-06-01T00:35:21;23.55;;;6.90;;
22916;SDS011;11624;53.250;7.456;2023-06-01T00:37:50;26.23;;;7.50;;
22916;SDS011;11624;53.250;7.456;2023-06-01T00:40:20;23.65;;;7.95;;
22916;SDS011;11624;53.250;7.456;2023-06-01T00:42:48;20.80;;;7.03;;
22916;SDS011;11624;53.250;7.456;2023-06-01T00:45:19;23.42;;;7.70;;
22916;SDS011;11624;53.250;7.456;2023-06-01T00:47:48;17.17;;;6.93;;
22916;SDS011;11624;53.250;7.456;2023-06-01T00:50:16;21.13;;;6.43;;
22916;SDS011;11624;53.250;7.456;2023-06-01T00:52:44;20.23;;;5.53;;
22916;SDS011;11624;53.250;7.456;2023-06-01T00:55:16;22.73;;;6.22;;
22916;SDS011;11624;53.250;7.456;2023-06-01T00:57:46;18.98;;;5.60;;
22916;SDS011;11624;53.250;7.456;2023-06-01T01:00:19;15.90;;;5.05;;
22916;SDS011;11624;53.250;7.456;2023-06-01T01:02:49;20.25;;;5.65;;
22916;SDS011;11624;53.250;7.456;2023-06-01T01:05:18;17.02;;;5.25;;
22916;SDS011;11624;53.250;7.456;2023-06-01T01:07:51;22.20;;;5.50;;
22916;SDS011;11624;53.250;7.456;2023-06-01T01:10:25;19.17;;;5.30;;
22916;SDS011;11624;53.250;7.456;2023-06-01T01:13:03;17.88;;;4.47;;
22916;SDS011;11624;53.250;7.456;2023-06-01T01:15:41;15.38;;;5.13;;
22916;SDS011;11624;53.250;7.456;2023-06-01T01:18:19;19.30;;;4.72;;
22916;SDS011;11624;53.250;7.456;2023-06-01T01:21:00;19.98;;;5.05;;
22916;SDS011;11624;53.250;7.456;2023-06-01T01:23:54;17.85;;;4.75;;
22916;SDS011;11624;53.250;7.456;2023-06-01T01:26:42;18.40;;;5.10;;
22916;SDS011;11624;53.250;7.456;2023-06-01T01:29:21;22.13;;;5.30;;
22916;SDS011;11624;53.250;7.456;2023-06-01T01:31:52;17.58;;;5.00;;
22916;SDS011;11624;53.250;7.456;2023-06-01T01:34:23;17.35;;;4.82;;
22916;SDS011;11624;53.250;7.456;2023-06-01T01:36:55;21.73;;;4.63;;
22916;SDS011;11624;53.250;7.456;2023-06-01T01:39:23;19.25;;;4.55;;
22916;SDS011;11624;53.250;7.456;2023-06-01T01:41:52;18.00;;;4.75;;
22916;SDS011;11624;53.250;7.456;2023-06-01T01:44:25;15.77;;;4.50;;
22916;SDS011;11624;53.250;7.456;2023-06-01T01:46:56;17.17;;;4.65;;
22916;SDS011;11624;53.250;7.456;2023-06-01T01:49:33;21.35;;;4.32;;
22916;SDS011;11624;53.250;7.456;2023-06-01T01:52:05;16.75;;;4.53;;
22916;SDS011;11624;53.250;7.456;2023-06-01T01:54:37;19.25;;;4.38;;
22916;SDS011;11624;53.250;7.456;2023-06-01T01:57:07;15.60;;;4.47;;
22916;SDS011;11624;53.250;7.456;2023-06-01T01:59:37;16.77;;;4.20;;
22916;SDS011;11624;53.250;7.456;2023-06-01T02:02:07;17.40;;;4.40;;
22916;SDS011;11624;53.250;7.456;2023-06-01T02:04:37;19.95;;;4.10;;
22916;SDS011;11624;53.250;7.456;2023-06-01T02:07:07;15.90;;;4.18;;
22916;SDS011;11624;53.250;7.456;2023-06-01T02:09:37;18.42;;;3.88;;
22916;SDS011;11624;53.250;7.456;2023-06-01T02:12:06;19.10;;;4.63;;
22916;SDS011;11624;53.250;7.456;2023-06-01T02:14:37;18.77;;;5.03;;
22916;SDS011;11624;53.250;7.456;2023-06-01T02:17:06;20.23;;;4.40;;
22916;SDS011;11624;53.250;7.456;2023-06-01T02:19:35;17.38;;;4.85;;
22916;SDS011;11624;53.250;7.456;2023-06-01T02:22:03;16.83;;;4.63;;
22916;SDS011;11624;53.250;7.456;2023-06-01T02:24:32;16.55;;;4.70;;
22916;SDS011;11624;53.250;7.456;2023-06-01T02:27:00;17.58;;;4.88;;
22916;SDS011;11624;53.250;7.456;2023-06-01T02:29:29;14.07;;;4.10;;
22916;SDS011;11624;53.250;7.456;2023-06-01T02:31:58;17.50;;;4.65;;
22916;SDS011;11624;53.250;7.456;2023-06-01T02:34:27;16.45;;;4.63;;
22916;SDS011;11624;53.250;7.456;2023-06-01T02:36:56;15.88;;;4.47;;
22916;SDS011;11624;53.250;7.456;2023-06-01T02:39:25;15.18;;;4.95;;
22916;SDS011;11624;53.250;7.456;2023-06-01T02:41:53;17.52;;;5.10;;
22916;SDS011;11624;53.250;7.456;2023-06-01T02:44:22;18.77;;;5.53;;
22916;SDS011;11624;53.250;7.456;2023-06-01T02:46:50;19.23;;;5.47;;
22916;SDS011;11624;53.250;7.456;2023-06-01T02:49:20;19.27;;;5.22;;
22916;SDS011;11624;53.250;7.456;2023-06-01T02:51:48;22.88;;;5.53;;
22916;SDS011;11624;53.250;7.456;2023-06-01T02:54:19;20.05;;;5.60;;
22916;SDS011;11624;53.250;7.456;2023-06-01T02:56:47;21.02;;;5.43;;
22916;SDS011;11624;53.250;7.456;2023-06-01T02:59:18;22.10;;;5.88;;
22916;SDS011;11624;53.250;7.456;2023-06-01T03:01:53;16.75;;;5.25;;
22916;SDS011;11624;53.250;7.456;2023-06-01T03:04:22;16.42;;;5.10;;
22916;SDS011;11624;53.250;7.456;2023-06-01T03:06:51;19.98;;;5.50;;
22916;SDS011;11624;53.250;7.456;2023-06-01T03:09:25;20.00;;;5.53;;
22916;SDS011;11624;53.250;7.456;2023-06-01T03:12:16;19.02;;;5.60;;
22916;SDS011;11624;53.250;7.456;2023-06-01T03:14:44;22.25;;;5.22;;
22916;SDS011;11624;53.250;7.456;2023-06-01T03:17:12;25.20;;;6.30;;
22916;SDS011;11624;53.250;7.456;2023-06-01T03:19:42;20.05;;;6.28;;
22916;SDS011;11624;53.250;7.456;2023-06-01T03:22:20;20.50;;;5.60;;
22916;SDS011;11624;53.250;7.456;2023-06-01T03:24:48;16.35;;;5.90;;
22916;SDS011;11624;53.250;7.456;2023-06-01T03:27:21;21.70;;;6.47;;
22916;SDS011;11624;53.250;7.456;2023-06-01T03:29:49;18.05;;;5.88;;
22916;SDS011;11624;53.250;7.456;2023-06-01T03:32:18;20.90;;;6.57;;
22916;SDS011;11624;53.250;7.456;2023-06-01T03:34:48;21.83;;;6.63;;
22916;SDS011;11624;53.250;7.456;2023-06-01T03:37:16;21.48;;;7.18;;
22916;SDS011;11624;53.250;7.456;2023-06-01T03:39:46;21.38;;;6.43;;
22916;SDS011;11624;53.250;7.456;2023-06-01T03:42:14;20.92;;;6.45;;
22916;SDS011;11624;53.250;7.456;2023-06-01T03:44:42;21.00;;;6.63;;
22916;SDS011;11624;53.250;7.456;2023-06-01T03:47:11;19.30;;;7.07;;
22916;SDS011;11624;53.250;7.456;2023-06-01T03:49:40;21.48;;;6.63;;
22916;SDS011;11624;53.250;7.456;2023-06-01T03:52:11;21.35;;;7.28;;
22916;SDS011;11624;53.250;7.456;2023-06-01T03:54:40;20.95;;;6.47;;
22916;SDS011;11624;53.250;7.456;2023-06-01T03:57:21;19.98;;;6.95;;
22916;SDS011;11624;53.250;7.456;2023-06-01T03:59:49;16.27;;;6.45;;
22916;SDS011;11624;53.250;7.456;2023-06-01T04:02:18;19.65;;;6.82;;
22916;SDS011;11624;53.250;7.456;2023-06-01T04:04:47;20.10;;;6.15;;
22916;SDS011;11624;53.250;7.456;2023-06-01T04:07:16;20.42;;;5.95;;
22916;SDS011;11624;53.250;7.456;2023-06-01T04:09:48;18.60;;;6.32;;
22916;SDS011;11624;53.250;7.456;2023-06-01T04:12:16;17.40;;;5.00;;
22916;SDS011;11624;53.250;7.456;2023-06-01T04:14:44;13.07;;;4.45;;
22916;SDS011;11624;53.250;7.456;2023-06-01T04:17:12;17.02;;;4.82;;
22916;SDS011;11624;53.250;7.456;2023-06-01T04:19:41;17.08;;;4.88;;
22916;SDS011;11624;53.250;7.456;2023-06-01T04:22:09;19.73;;;4.68;;
22916;SDS011;11624;53.250;7.456;2023-06-01T04:24:39;17.38;;;4.88;;
22916;SDS011;11624;53.250;7.456;2023-06-01T04:27:07;16.42;;;4.97;;
22916;SDS011;11624;53.250;7.456;2023-06-01T04:29:35;15.15;;;4.30;;
22916;SDS011;11624;53.250;7.456;2023-06-01T04:32:06;16.02;;;4.20;;
22916;SDS011;11624;53.250;7.456;2023-06-01T04:34:36;17.30;;;4.47;;
22916;SDS011;11624;53.250;7.456;2023-06-01T04:37:05;14.25;;;4.05;;
22916;SDS011;11624;53.250;7.456;2023-06-01T04:39:34;15.30;;;3.70;;
22916;SDS011;11624;53.250;7.456;2023-06-01T04:42:04;16.10;;;3.75;;
22916;SDS011;11624;53.250;7.456;2023-06-01T04:44:33;19.83;;;4.10;;
22916;SDS011;11624;53.250;7.456;2023-06-01T04:47:03;11.65;;;3.38;;
22916;SDS011;11624;53.250;7.456;2023-06-01T04:49:31;13.45;;;3.45;;
22916;SDS011;11624;53.250;7.456;2023-06-01T04:52:01;16.70;;;3.58;;
22916;SDS011;11624;53.250;7.456;2023-06-01T04:54:30;13.75;;;3.83;;
22916;SDS011;11624;53.250;7.456;2023-06-01T04:56:59;12.95;;;3.80;;
22916;SDS011;11624;53.250;7.456;2023-06-01T04:59:28;13.68;;;4.00;;
22916;SDS011;11624;53.250;7.456;2023-06-01T05:01:56;14.73;;;4.28;;
22916;SDS011;11624;53.250;7.456;2023-06-01T05:04:25;14.73;;;3.60;;
22916;SDS011;11624;53.250;7.456;2023-06-01T05:06:53;18.10;;;4.85;;
22916;SDS011;11624;53.250;7.456;2023-06-01T05:09:22;14.32;;;4.28;;
22916;SDS011;11624;53.250;7.456;2023-06-01T05:11:50;16.50;;;4.10;;
22916;SDS011;11624;53.250;7.456;2023-06-01T05:14:18;14.75;;;3.95;;
22916;SDS011;11624;53.250;7.456;2023-06-01T05:16:48;15.18;;;4.15;;
22916;SDS011;11624;53.250;7.456;2023-06-01T05:19:17;15.82;;;3.97;;
22916;SDS011;11624;53.250;7.456;2023-06-01T05:21:45;14.30;;;4.13;;
22916;SDS011;11624;53.250;7.456;2023-06-01T05:24:13;15.23;;;4.03;;
22916;SDS011;11624;53.250;7.456;2023-06-01T05:26:42;14.43;;;4.40;;
22916;SDS011;11624;53.250;7.456;2023-06-01T05:29:10;14.38;;;4.22;;
22916;SDS011;11624;53.250;7.456;2023-06-01T05:31:38;13.38;;;4.00;;
22916;SDS011;11624;53.250;7.456;2023-06-01T05:34:08;18.00;;;3.47;;
22916;SDS011;11624;53.250;7.456;2023-06-01T05:36:36;10.70;;;3.00;;
22916;SDS011;11624;53.250;7.456;2023-06-01T05:39:05;10.40;;;3.30;;
22916;SDS011;11624;53.250;7.456;2023-06-01T05:41:34;11.00;;;2.88;;
22916;SDS011;11624;53.250;7.456;2023-06-01T05:44:02;11.88;;;3.30;;
22916;SDS011;11624;53.250;7.456;2023-06-01T05:46:31;10.98;;;3.10;;
22916;SDS011;11624;53.250;7.456;2023-06-01T05:48:59;10.88;;;3.25;;
22916;SDS011;11624;53.250;7.456;2023-06-01T05:51:28;10.32;;;3.25;;
22916;SDS011;11624;53.250;7.456;2023-06-01T05:53:56;10.15;;;3.30;;
22916;SDS011;11624;53.250;7.456;2023-06-01T05:56:25;9.77;;;3.00;;
22916;SDS011;11624;53.250;7.456;2023-06-01T05:58:53;14.48;;;3.80;;
22916;SDS011;11624;53.250;7.456;2023-06-01T06:01:22;11.00;;;3.13;;
22916;SDS011;11624;53.250;7.456;2023-06-01T06:03:50;10.75;;;3.15;;
22916;SDS011;11624;53.250;7.456;2023-06-01T06:06:18;13.73;;;3.15;;
22916;SDS011;11624;53.250;7.456;2023-06-01T06:08:51;14.05;;;3.15;;
22916;SDS011;11624;53.250;7.456;2023-06-01T06:11:19;9.73;;;2.83;;
22916;SDS011;11624;53.250;7.456;2023-06-01T06:13:48;10.65;;;3.10;;
22916;SDS011;11624;53.250;7.456;2023-06-01T06:16:17;11.50;;;3.08;;
22916;SDS011;11624;53.250;7.456;2023-06-01T06:18:45;13.88;;;3.30;;
22916;SDS011;11624;53.250;7.456;2023-06-01T06:21:13;11.43;;;3.10;;
22916;SDS011;11624;53.250;7.456;2023-06-01T06:23:44;8.73;;;2.70;;
22916;SDS011;11624;53.250;7.456;2023-06-01T06:26:15;15.45;;;2.85;;
22916;SDS011;11624;53.250;7.456;2023-06-01T06:28:43;6.22;;;1.98;;
22916;SDS011;11624;53.250;7.456;2023-06-01T06:31:12;7.68;;;2.30;;
22916;SDS011;11624;53.250;7.456;2023-06-01T06:33:40;10.32;;;2.45;;
22916;SDS011;11624;53.250;7.456;2023-06-01T06:36:08;10.07;;;2.20;;
22916;SDS011;11624;53.250;7.456;2023-06-01T06:38:36;9.15;;;2.42;;
22916;SDS011;11624;53.250;7.456;2023-06-01T06:41:04;8.65;;;2.10;;
22916;SDS011;11624;53.250;7.456;2023-06-01T06:43:36;11.02;;;2.40;;
22916;SDS011;11624;53.250;7.456;2023-06-01T06:46:04;9.73;;;2.33;;
22916;SDS011;11624;53.250;7.456;2023-06-01T06:48:32;9.63;;;2.10;;
22916;SDS011;11624;53.250;7.456;2023-06-01T06:51:01;11.00;;;2.63;;
22916;SDS011;11624;53.250;7.456;2023-06-01T06:53:30;9.27;;;2.30;;
22916;SDS011;11624;53.250;7.456;2023-06-01T06:55:59;6.82;;;2.13;;
22916;SDS011;11624;53.250;7.456;2023-06-01T06:58:28;11.75;;;2.60;;
22916;SDS011;11624;53.250;7.456;2023-06-01T07:00:57;11.95;;;2.60;;
22916;SDS011;11624;53.250;7.456;2023-06-01T07:03:27;11.85;;;3.00;;
22916;SDS011;11624;53.250;7.456;2023-06-01T07:05:55;9.13;;;2.95;;
22916;SDS011;11624;53.250;7.456;2023-06-01T07:08:23;12.43;;;2.88;;
22916;SDS011;11624;53.250;7.456;2023-06-01T07:10:52;11.52;;;3.13;;
22916;SDS011;11624;53.250;7.456;2023-06-01T07:13:33;11.57;;;3.25;;
22916;SDS011;11624;53.250;7.456;2023-06-01T07:16:03;9.60;;;3.13;;
22916;SDS011;11624;53.250;7.456;2023-06-01T07:18:32;12.93;;;3.17;;
22916;SDS011;11624;53.250;7.456;2023-06-01T07:21:00;13.13;;;3.33;;
22916;SDS011;11624;53.250;7.456;2023-06-01T07:23:29;11.07;;;3.08;;
22916;SDS011;11624;53.250;7.456;2023-06-01T07:25:57;11.88;;;3.03;;
22916;SDS011;11624;53.250;7.456;2023-06-01T07:28:25;11.27;;;3.10;;
22916;SDS011;11624;53.250;7.456;2023-06-01T07:30:55;12.30;;;3.45;;
22916;SDS011;11624;53.250;7.456;2023-06-01T07:33:24;9.93;;;2.72;;
22916;SDS011;11624;53.250;7.456;2023-06-01T07:35:53;9.73;;;3.03;;
22916;SDS011;11624;53.250;7.456;2023-06-01T07:38:23;8.57;;;2.55;;
22916;SDS011;11624;53.250;7.456;2023-06-01T07:40:52;13.73;;;2.90;;
22916;SDS011;11624;53.250;7.456;2023-06-01T07:43:20;13.27;;;3.20;;
22916;SDS011;11624;53.250;7.456;2023-06-01T07:45:48;11.55;;;3.10;;
22916;SDS011;11624;53.250;7.456;2023-06-01T07:48:16;9.18;;;2.83;;
22916;SDS011;11624;53.250;7.456;2023-06-01T07:50:46;10.50;;;2.92;;
22916;SDS011;11624;53.250;7.456;2023-06-01T07:53:14;9.10;;;2.72;;
22916;SDS011;11624;53.250;7.456;2023-06-01T07:55:42;13.15;;;3.25;;
22916;SDS011;11624;53.250;7.456;2023-06-01T07:58:11;15.80;;;3.80;;
22916;SDS011;11624;53.250;7.456;2023-06-01T08:00:39;17.02;;;3.53;;
22916;SDS011;11624;53.250;7.456;2023-06-01T08:03:07;13.52;;;3.47;;
22916;SDS011;11624;53.250;7.456;2023-06-01T08:05:35;13.48;;;4.00;;
22916;SDS011;11624;53.250;7.456;2023-06-01T08:08:06;15.43;;;4.10;;
22916;SDS011;11624;53.250;7.456;2023-06-01T08:10:34;14.68;;;4.32;;
22916;SDS011;11624;53.250;7.456;2023-06-01T08:13:04;19.23;;;4.85;;
22916;SDS011;11624;53.250;7.456;2023-06-01T08:15:33;19.13;;;4.32;;
22916;SDS011;11624;53.250;7.456;2023-06-01T08:18:04;17.58;;;4.75;;
22916;SDS011;11624;53.250;7.456;2023-06-01T08:20:32;15.65;;;4.03;;
22916;SDS011;11624;53.250;7.456;2023-06-01T08:23:01;16.42;;;4.85;;
22916;SDS011;11624;53.250;7.456;2023-06-01T08:25:31;17.63;;;4.32;;
22916;SDS011;11624;53.250;7.456;2023-06-01T08:27:59;16.75;;;4.70;;
22916;SDS011;11624;53.250;7.456;2023-06-01T08:30:27;15.55;;;4.60;;
22916;SDS011;11624;53.250;7.456;2023-06-01T08:32:55;18.83;;;5.45;;
22916;SDS011;11624;53.250;7.456;2023-06-01T08:35:24;19.48;;;5.57;;
22916;SDS011;11624;53.250;7.456;2023-06-01T08:37:52;17.30;;;5.35;;
22916;SDS011;11624;53.250;7.456;2023-06-01T08:40:21;17.20;;;5.47;;
22916;SDS011;11624;53.250;7.456;2023-06-01T08:42:55;16.00;;;5.32;;
22916;SDS011;11624;53.250;7.456;2023-06-01T08:45:26;22.77;;;5.28;;
22916;SDS011;11624;53.250;7.456;2023-06-01T08:47:56;16.88;;;5.43;;
22916;SDS011;11624;53.250;7.456;2023-06-01T08:50:26;18.42;;;5.65;;
22916;SDS011;11624;53.250;7.456;2023-06-01T08:52:54;16.90;;;5.28;;
22916;SDS011;11624;53.250;7.456;2023-06-01T08:55:24;14.55;;;4.30;;
22916;SDS011;11624;53.250;7.456;2023-06-01T08:57:54;17.40;;;4.40;;
22916;SDS011;11624;53.250;7.456;2023-06-01T09:00:23;18.50;;;5.18;;
22916;SDS011;11624;53.250;7.456;2023-06-01T09:02:52;18.90;;;4.18;;
22916;SDS011;11624;53.250;7.456;2023-06-01T09:05:20;15.40;;;4.97;;
22916;SDS011;11624;53.250;7.456;2023-06-01T09:07:48;18.38;;;4.60;;
22916;SDS011;11624;53.250;7.456;2023-06-01T09:10:19;15.73;;;4.30;;
22916;SDS011;11624;53.250;7.456;2023-06-01T09:12:51;13.98;;;3.80;;
22916;SDS011;11624;53.250;7.456;2023-06-01T09:15:22;13.02;;;3.80;;
22916;SDS011;11624;53.250;7.456;2023-06-01T09:17:52;12.23;;;3.72;;
22916;SDS011;11624;53.250;7.456;2023-06-01T09:20:32;11.35;;;3.63;;
22916;SDS011;11624;53.250;7.456;2023-06-01T09:23:03;18.45;;;3.65;;
22916;SDS011;11624;53.250;7.456;2023-06-01T09:25:32;11.50;;;3.22;;
22916;SDS011;11624;53.250;7.456;2023-06-01T09:28:01;11.77;;;3.63;;
22916;SDS011;11624;53.250;7.456;2023-06-01T09:30:40;13.30;;;3.95;;
22916;SDS011;11624;53.250;7.456;2023-06-01T09:33:12;14.55;;;3.75;;
22916;SDS011;11624;53.250;7.456;2023-06-01T09:35:42;15.40;;;3.60;;
22916;SDS011;11624;53.250;7.456;2023-06-01T09:38:12;14.00;;;4.03;;
22916;SDS011;11624;53.250;7.456;2023-06-01T09:40:55;15.95;;;4.25;;
22916;SDS011;11624;53.250;7.456;2023-06-01T09:43:24;13.75;;;3.97;;
22916;SDS011;11624;53.250;7.456;2023-06-01T09:46:04;15.25;;;4.18;;
22916;SDS011;11624;53.250;7.456;2023-06-01T09:48:33;14.32;;;4.03;;
22916;SDS011;11624;53.250;7.456;2023-06-01T09:51:03;16.92;;;3.83;;
22916;SDS011;11624;53.250;7.456;2023-06-01T09:53:40;17.77;;;3.85;;
22916;SDS011;11624;53.250;7.456;2023-06-01T09:56:08;13.80;;;3.72;;
22916;SDS011;11624;53.250;7.456;2023-06-01T09:58:36;14.63;;;3.83;;
22916;SDS011;11624;53.250;7.456;2023-06-01T10:01:08;17.88;;;4.20;;
22916;SDS011;11624;53.250;7.456;2023-06-01T10:03:40;12.77;;;3.55;;
22916;SDS011;11624;53.250;7.456;2023-06-01T10:06:10;13.57;;;3.85;;
22916;SDS011;11624;53.250;7.456;2023-06-01T10:08:40;12.43;;;3.78;;
22916;SDS011;11624;53.250;7.456;2023-06-01T10:11:09;17.08;;;4.10;;
22916;SDS011;11624;53.250;7.456;2023-06-01T10:13:37;13.77;;;3.90;;
22916;SDS011;11624;53.250;7.456;2023-06-01T10:16:06;16.80;;;3.90;;
22916;SDS011;11624;53.250;7.456;2023-06-01T10:18:43;14.80;;;3.90;;
22916;SDS011;11624;53.250;7.456;2023-06-01T10:21:14;15.90;;;4.13;;
22916;SDS011;11624;53.250;7.456;2023-06-01T10:23:44;18.27;;;4.10;;
22916;SDS011;11624;53.250;7.456;2023-06-01T10:26:14;19.10;;;3.85;;
22916;SDS011;11624;53.250;7.456;2023-06-01T10:28:44;13.65;;;3.63;;
22916;SDS011;11624;53.250;7.456;2023-06-01T10:31:32;17.75;;;3.55;;
22916;SDS011;11624;53.250;7.456;2023-06-01T10:34:07;15.68;;;3.70;;
22916;SDS011;11624;53.250;7.456;2023-06-01T10:39:45;17.75;;;3.80;;
22916;SDS011;11624;53.250;7.456;2023-06-01T10:45:07;14.13;;;3.53;;
22916;SDS011;11624;53.250;7.456;2023-06-01T10:47:51;19.88;;;4.00;;
22916;SDS011;11624;53.250;7.456;2023-06-01T10:50:21;17.00;;;3.40;;
22916;SDS011;11624;53.250;7.456;2023-06-01T10:52:49;14.88;;;3.60;;
22916;SDS011;11624;53.250;7.456;2023-06-01T10:55:19;16.17;;;3.80;;
22916;SDS011;11624;53.250;7.456;2023-06-01T10:57:51;13.93;;;3.47;;
22916;SDS011;11624;53.250;7.456;2023-06-01T11:00:53;14.35;;;3.63;;
22916;SDS011;11624;53.250;7.456;2023-06-01T11:03:42;12.45;;;3.92;;
22916;SDS011;11624;53.250;7.456;2023-06-01T11:09:00;12.55;;;3.45;;
22916;SDS011;11624;53.250;7.456;2023-06-01T11:14:27;16.38;;;3.88;;
22916;SDS011;11624;53.250;7.456;2023-06-01T11:20:02;14.77;;;3.78;;
22916;SDS011;11624;53.250;7.456;2023-06-01T11:22:38;18.88;;;3.97;;
22916;SDS011;11624;53.250;7.456;2023-06-01T11:25:07;13.60;;;3.60;;
22916;SDS011;11624;53.250;7.456;2023-06-01T11:27:36;18.00;;;4.40;;
22916;SDS011;11624;53.250;7.456;2023-06-01T11:30:10;14.02;;;4.38;;
22916;SDS011;11624;53.250;7.456;2023-06-01T11:32:38;13.25;;;3.83;;
22916;SDS011;11624;53.250;7.456;2023-06-01T11:35:15;16.23;;;4.00;;
22916;SDS011;11624;53.250;7.456;2023-06-01T11:37:46;15.82;;;4.03;;
22916;SDS011;11624;53.250;7.456;2023-06-01T11:40:21;18.77;;;4.07;;
22916;SDS011;11624;53.250;7.456;2023-06-01T11:42:53;15.55;;;4.10;;
22916;SDS011;11624;53.250;7.456;2023-06-01T11:45:22;18.40;;;4.38;;
22916;SDS011;11624;53.250;7.456;2023-06-01T11:47:53;18.95;;;4.85;;
22916;SDS011;11624;53.250;7.456;2023-06-01T11:50:22;18.30;;;4.38;;
22916;SDS011;11624;53.250;7.456;2023-06-01T11:52:59;14.15;;;3.70;;
22916;SDS011;11624;53.250;7.456;2023-06-01T11:55:28;15.85;;;4.13;;
22916;SDS011;11624;53.250;7.456;2023-06-01T11:57:56;15.98;;;4.10;;
22916;SDS011;11624;53.250;7.456;2023-06-01T12:00:25;14.57;;;4.13;;
22916;SDS011;11624;53.250;7.456;2023-06-01T12:03:04;18.58;;;3.88;;
22916;SDS011;11624;53.250;7.456;2023-06-01T12:05:38;18.10;;;3.90;;
22916;SDS011;11624;53.250;7.456;2023-06-01T12:08:14;12.80;;;3.75;;
22916;SDS011;11624;53.250;7.456;2023-06-01T12:10:43;12.32;;;3.67;;
22916;SDS011;11624;53.250;7.456;2023-06-01T12:13:13;15.93;;;3.97;;
22916;SDS011;11624;53.250;7.456;2023-06-01T12:15:42;20.67;;;4.18;;
22916;SDS011;11624;53.250;7.456;2023-06-01T12:18:11;20.60;;;4.18;;
22916;SDS011;11624;53.250;7.456;2023-06-01T12:20:40;19.48;;;3.85;;
22916;SDS011;11624;53.250;7.456;2023-06-01T12:23:15;15.02;;;3.90;;
22916;SDS011;11624;53.250;7.456;2023-06-01T12:25:49;12.07;;;3.25;;
22916;SDS011;11624;53.250;7.456;2023-06-01T12:28:18;14.25;;;3.50;;
22916;SDS011;11624;53.250;7.456;2023-06-01T12:30:47;16.50;;;4.38;;
22916;SDS011;11624;53.250;7.456;2023-06-01T12:33:31;12.45;;;3.53;;
22916;SDS011;11624;53.250;7.456;2023-06-01T12:36:01;14.18;;;3.70;;
22916;SDS011;11624;53.250;7.456;2023-06-01T12:38:35;16.00;;;3.85;;
22916;SDS011;11624;53.250;7.456;2023-06-01T12:41:08;14.35;;;3.50;;
22916;SDS011;11624;53.250;7.456;2023-06-01T12:43:38;13.70;;;3.40;;
22916;SDS011;11624;53.250;7.456;2023-06-01T12:46:17;13.25;;;3.75;;
22916;SDS011;11624;53.250;7.456;2023-06-01T12:48:47;9.90;;;2.95;;
22916;SDS011;11624;53.250;7.456;2023-06-01T12:51:16;15.50;;;3.28;;
22916;SDS011;11624;53.250;7.456;2023-06-01T12:53:46;13.38;;;3.22;;
22916;SDS011;11624;53.250;7.456;2023-06-01T12:56:15;15.55;;;3.55;;
22916;SDS011;11624;53.250;7.456;2023-06-01T12:58:43;12.30;;;2.90;;
22916;SDS011;11624;53.250;7.456;2023-06-01T13:01:12;13.65;;;3.42;;
22916;SDS011;11624;53.250;7.456;2023-06-01T13:03:40;15.45;;;3.95;;
22916;SDS011;11624;53.250;7.456;2023-06-01T13:06:09;15.68;;;3.60;;
22916;SDS011;11624;53.250;7.456;2023-06-01T13:08:37;17.80;;;3.70;;
22916;SDS011;11624;53.250;7.456;2023-06-01T13:11:07;14.50;;;3.85;;
22916;SDS011;11624;53.250;7.456;2023-06-01T13:13:36;16.00;;;3.67;;
22916;SDS011;11624;53.250;7.456;2023-06-01T13:16:09;17.05;;;3.72;;
22916;SDS011;11624;53.250;7.456;2023-06-01T13:18:37;17.77;;;3.60;;
22916;SDS011;11624;53.250;7.456;2023-06-01T13:21:06;18.70;;;3.53;;
22916;SDS011;11624;53.250;7.456;2023-06-01T13:23:34;16.70;;;3.78;;
22916;SDS011;11624;53.250;7.456;2023-06-01T13:26:02;19.42;;;3.90;;
22916;SDS011;11624;53.250;7.456;2023-06-01T13:28:32;15.52;;;4.03;;
22916;SDS011;11624;53.250;7.456;2023-06-01T13:31:01;12.35;;;3.10;;
22916;SDS011;11624;53.250;7.456;2023-06-01T13:33:30;16.10;;;3.78;;
22916;SDS011;11624;53.250;7.456;2023-06-01T13:36:00;18.58;;;3.47;;
22916;SDS011;11624;53.250;7.456;2023-06-01T13:38:28;16.13;;;3.83;;
22916;SDS011;11624;53.250;7.456;2023-06-01T13:40:57;14.60;;;3.97;;
22916;SDS011;11624;53.250;7.456;2023-06-01T13:43:26;15.10;;;4.20;;
22916;SDS011;11624;53.250;7.456;2023-06-01T13:45:56;11.65;;;3.65;;
22916;SDS011;11624;53.250;7.456;2023-06-01T13:48:24;14.52;;;3.65;;
22916;SDS011;11624;53.250;7.456;2023-06-01T13:50:52;12.38;;;3.53;;
22916;SDS011;11624;53.250;7.456;2023-06-01T13:53:21;10.13;;;3.63;;
22916;SDS011;11624;53.250;7.456;2023-06-01T13:55:49;13.15;;;4.03;;
22916;SDS011;11624;53.250;7.456;2023-06-01T13:58:17;19.05;;;4.05;;
22916;SDS011;11624;53.250;7.456;2023-06-01T14:00:46;14.40;;;3.40;;
22916;SDS011;11624;53.250;7.456;2023-06-01T14:03:15;14.93;;;3.40;;
22916;SDS011;11624;53.250;7.456;2023-06-01T14:05:46;12.77;;;3.53;;
22916;SDS011;11624;53.250;7.456;2023-06-01T14:08:20;13.88;;;3.30;;
22916;SDS011;11624;53.250;7.456;2023-06-01T14:10:49;12.52;;;3.35;;
22916;SDS011;11624;53.250;7.456;2023-06-01T14:13:17;9.38;;;2.80;;
22916;SDS011;11624;53.250;7.456;2023-06-01T14:15:46;12.50;;;2.70;;
22916;SDS011;11624;53.250;7.456;2023-06-01T14:18:15;12.68;;;2.47;;
22916;SDS011;11624;53.250;7.456;2023-06-01T14:20:44;14.52;;;2.85;;
22916;SDS011;11624;53.250;7.456;2023-06-01T14:23:12;9.32;;;2.30;;
22916;SDS011;11624;53.250;7.456;2023-06-01T14:25:40;9.02;;;2.30;;
22916;SDS011;11624;53.250;7.456;2023-06-01T14:28:09;9.93;;;1.98;;
22916;SDS011;11624;53.250;7.456;2023-06-01T14:30:37;10.63;;;2.13;;
22916;SDS011;11624;53.250;7.456;2023-06-01T14:33:06;12.98;;;2.38;;
22916;SDS011;11624;53.250;7.456;2023-06-01T14:35:36;12.85;;;2.28;;
22916;SDS011;11624;53.250;7.456;2023-06-01T14:38:04;13.93;;;2.63;;
22916;SDS011;11624;53.250;7.456;2023-06-01T14:40:32;12.73;;;2.50;;
22916;SDS011;11624;53.250;7.456;2023-06-01T14:43:01;12.18;;;2.70;;
22916;SDS011;11624;53.250;7.456;2023-06-01T14:45:29;9.30;;;2.30;;
22916;SDS011;11624;53.250;7.456;2023-06-01T14:47:58;12.52;;;2.80;;
22916;SDS011;11624;53.250;7.456;2023-06-01T14:50:26;16.77;;;2.63;;
22916;SDS011;11624;53.250;7.456;2023-06-01T14:52:56;12.02;;;2.22;;
22916;SDS011;11624;53.250;7.456;2023-06-01T14:55:26;11.90;;;2.40;;
22916;SDS011;11624;53.250;7.456;2023-06-01T14:57:54;12.80;;;2.53;;
22916;SDS011;11624;53.250;7.456;2023-06-01T15:00:23;14.93;;;3.00;;
22916;SDS011;11624;53.250;7.456;2023-06-01T15:02:51;15.88;;;2.40;;
22916;SDS011;11624;53.250;7.456;2023-06-01T15:05:20;11.57;;;2.22;;
22916;SDS011;11624;53.250;7.456;2023-06-01T15:07:48;9.05;;;1.90;;